sensor_id;sensor_type;location;lat;lon;timestamp;P1;durP1;ratioP1;P2;durP2;ratioP2
47669;SDS011;33408;52.062;11.722;2023-04-06T00:02:16;7.65;;;3.78;;
47669;SDS011;33408;52.062;11.722;2023-04-06T00:04:43;8.65;;;3.97;;
47669;SDS011;33408;52.062;11.722;2023-04-06T00:07:10;6.68;;;2.95;;
47669;SDS011;33408;52.062;11.722;2023-04-06T00:09:37;6.55;;;3.30;;
47669;SDS011;33408;52.062;11.722;2023-04-06T00:12:03;7.03;;;3.38;;
47669;SDS011;33408;52.062;11.722;2023-04-06T00:14:32;7.25;;;3.08;;
47669;SDS011;33408;52.062;11.722;2023-04-06T00:16:58;8.50;;;3.10;;
47669;SDS011;33408;52.062;11.722;2023-04-06T00:19:25;7.00;;;3.17;;
47669;SDS011;33408;52.062;11.722;2023-04-06T00:21:51;7.18;;;3.33;;
47669;SDS011;33408;52.062;11.722;2023-04-06T00:24:18;14.02;;;6.00;;
47669;SDS011;33408;52.062;11.722;2023-04-06T00:26:45;11.50;;;4.53;;
47669;SDS011;33408;52.062;11.722;2023-04-06T00:29:11;14.82;;;5.57;;
47669;SDS011;33408;52.062;11.722;2023-04-06T00:31:39;10.88;;;5.05;;
47669;SDS011;33408;52.062;11.722;2023-04-06T00:34:06;8.20;;;4.30;;
47669;SDS011;33408;52.062;11.722;2023-04-06T00:36:33;9.48;;;3.80;;
47669;SDS011;33408;52.062;11.722;2023-04-06T00:38:59;10.32;;;3.53;;
47669;SDS011;33408;52.062;11.722;2023-04-06T00:41:26;11.75;;;3.92;;
47669;SDS011;33408;52.062;11.722;2023-04-06T00:43:53;8.70;;;4.32;;
47669;SDS011;33408;52.062;11.722;2023-04-06T00:46:20;12.85;;;4.82;;
47669;SDS011;33408;52.062;11.722;2023-04-06T00:48:48;16.00;;;5.22;;
47669;SDS011;33408;52.062;11.722;2023-04-06T00:51:15;25.55;;;8.52;;
47669;SDS011;33408;52.062;11.722;2023-04-06T00:53:41;20.05;;;6.35;;
47669;SDS011;33408;52.062;11.722;2023-04-06T00:56:08;11.32;;;4.72;;
47669;SDS011;33408;52.062;11.722;2023-04-06T00:58:35;8.98;;;4.05;;
47669;SDS011;33408;52.062;11.722;2023-04-06T01:01:03;8.57;;;4.35;;
47669;SDS011;33408;52.062;11.722;2023-04-06T01:03:30;14.32;;;5.28;;
47669;SDS011;33408;52.062;11.722;2023-04-06T01:05:58;17.08;;;6.68;;
47669;SDS011;33408;52.062;11.722;2023-04-06T01:08:25;18.45;;;6.00;;
47669;SDS011;33408;52.062;11.722;2023-04-06T01:10:52;14.27;;;5.57;;
47669;SDS011;33408;52.062;11.722;2023-04-06T01:13:18;10.13;;;4.18;;
47669;SDS011;33408;52.062;11.722;2023-04-06T01:15:45;9.18;;;4.43;;
47669;SDS011;33408;52.062;11.722;2023-04-06T01:18:12;12.98;;;4.72;;
47669;SDS011;33408;52.062;11.722;2023-04-06T01:20:39;7.00;;;3.88;;
47669;SDS011;33408;52.062;11.722;2023-04-06T01:23:07;9.70;;;4.30;;
47669;SDS011;33408;52.062;11.722;2023-04-06T01:25:33;11.75;;;5.03;;
47669;SDS011;33408;52.062;11.722;2023-04-06T01:28:00;14.45;;;4.88;;
47669;SDS011;33408;52.062;11.722;2023-04-06T01:30:27;10.52;;;4.30;;
47669;SDS011;33408;52.062;11.722;2023-04-06T01:32:54;9.48;;;4.72;;
47669;SDS011;33408;52.062;11.722;2023-04-06T01:35:21;17.25;;;6.25;;
47669;SDS011;33408;52.062;11.722;2023-04-06T01:37:48;12.88;;;5.72;;
47669;SDS011;33408;52.062;11.722;2023-04-06T01:40:16;14.95;;;5.90;;
47669;SDS011;33408;52.062;11.722;2023-04-06T01:42:43;13.25;;;5.93;;
47669;SDS011;33408;52.062;11.722;2023-04-06T01:45:10;9.63;;;5.65;;
47669;SDS011;33408;52.062;11.722;2023-04-06T01:47:36;12.27;;;5.90;;
47669;SDS011;33408;52.062;11.722;2023-04-06T01:50:03;12.80;;;6.00;;
47669;SDS011;33408;52.062;11.722;2023-04-06T01:52:32;12.27;;;4.70;;
47669;SDS011;33408;52.062;11.722;2023-04-06T01:54:59;10.52;;;5.72;;
47669;SDS011;33408;52.062;11.722;2023-04-06T01:57:27;11.18;;;4.88;;
47669;SDS011;33408;52.062;11.722;2023-04-06T01:59:53;12.13;;;5.50;;
47669;SDS011;33408;52.062;11.722;2023-04-06T02:02:20;10.95;;;5.15;;
47669;SDS011;33408;52.062;11.722;2023-04-06T02:04:46;11.38;;;4.68;;
47669;SDS011;33408;52.062;11.722;2023-04-06T02:07:13;16.58;;;4.90;;
47669;SDS011;33408;52.062;11.722;2023-04-06T02:09:40;10.77;;;5.05;;
47669;SDS011;33408;52.062;11.722;2023-04-06T02:12:06;9.52;;;4.97;;
47669;SDS011;33408;52.062;11.722;2023-04-06T02:14:34;10.80;;;5.60;;
47669;SDS011;33408;52.062;11.722;2023-04-06T02:17:01;9.68;;;4.65;;
47669;SDS011;33408;52.062;11.722;2023-04-06T02:19:28;16.05;;;5.15;;
47669;SDS011;33408;52.062;11.722;2023-04-06T02:21:54;11.13;;;5.30;;
47669;SDS011;33408;52.062;11.722;2023-04-06T02:24:21;9.43;;;5.28;;
47669;SDS011;33408;52.062;11.722;2023-04-06T02:26:48;9.30;;;5.07;;
47669;SDS011;33408;52.062;11.722;2023-04-06T02:29:15;9.77;;;5.25;;
47669;SDS011;33408;52.062;11.722;2023-04-06T02:31:42;12.38;;;5.13;;
47669;SDS011;33408;52.062;11.722;2023-04-06T02:34:09;9.02;;;4.97;;
47669;SDS011;33408;52.062;11.722;2023-04-06T02:39:08;10.55;;;4.93;;
47669;SDS011;33408;52.062;11.722;2023-04-06T02:41:35;12.63;;;5.65;;
47669;SDS011;33408;52.062;11.722;2023-04-06T02:44:02;10.15;;;5.68;;
47669;SDS011;33408;52.062;11.722;2023-04-06T02:46:29;10.38;;;5.28;;
47669;SDS011;33408;52.062;11.722;2023-04-06T02:48:57;10.35;;;5.18;;
47669;SDS011;33408;52.062;11.722;2023-04-06T02:51:25;15.52;;;5.45;;
47669;SDS011;33408;52.062;11.722;2023-04-06T02:53:52;13.02;;;5.50;;
47669;SDS011;33408;52.062;11.722;2023-04-06T02:56:18;12.20;;;4.88;;
47669;SDS011;33408;52.062;11.722;2023-04-06T02:58:46;9.82;;;5.32;;
47669;SDS011;33408;52.062;11.722;2023-04-06T03:01:12;8.88;;;4.47;;
47669;SDS011;33408;52.062;11.722;2023-04-06T03:03:39;9.88;;;5.38;;
47669;SDS011;33408;52.062;11.722;2023-04-06T03:06:08;10.68;;;5.35;;
47669;SDS011;33408;52.062;11.722;2023-04-06T03:08:34;10.90;;;4.80;;
47669;SDS011;33408;52.062;11.722;2023-04-06T03:11:01;8.02;;;4.82;;
47669;SDS011;33408;52.062;11.722;2023-04-06T03:13:27;9.98;;;4.88;;
47669;SDS011;33408;52.062;11.722;2023-04-06T03:15:54;12.35;;;5.03;;
47669;SDS011;33408;52.062;11.722;2023-04-06T03:18:21;9.65;;;5.00;;
47669;SDS011;33408;52.062;11.722;2023-04-06T03:20:49;8.45;;;4.90;;
47669;SDS011;33408;52.062;11.722;2023-04-06T03:23:17;8.57;;;5.00;;
47669;SDS011;33408;52.062;11.722;2023-04-06T03:25:45;10.98;;;5.28;;
47669;SDS011;33408;52.062;11.722;2023-04-06T03:28:12;10.82;;;5.63;;
47669;SDS011;33408;52.062;11.722;2023-04-06T03:30:39;11.55;;;6.25;;
47669;SDS011;33408;52.062;11.722;2023-04-06T03:33:06;10.68;;;5.80;;
47669;SDS011;33408;52.062;11.722;2023-04-06T03:35:32;10.80;;;5.70;;
47669;SDS011;33408;52.062;11.722;2023-04-06T03:37:59;10.82;;;5.90;;
47669;SDS011;33408;52.062;11.722;2023-04-06T03:40:27;11.30;;;6.30;;
47669;SDS011;33408;52.062;11.722;2023-04-06T03:42:54;11.48;;;6.03;;
47669;SDS011;33408;52.062;11.722;2023-04-06T03:45:20;12.40;;;6.28;;
47669;SDS011;33408;52.062;11.722;2023-04-06T03:47:47;15.10;;;7.85;;
47669;SDS011;33408;52.062;11.722;2023-04-06T03:50:13;12.48;;;6.32;;
47669;SDS011;33408;52.062;11.722;2023-04-06T03:52:40;12.38;;;6.20;;
47669;SDS011;33408;52.062;11.722;2023-04-06T03:55:07;13.07;;;6.78;;
47669;SDS011;33408;52.062;11.722;2023-04-06T03:57:36;12.07;;;7.07;;
47669;SDS011;33408;52.062;11.722;2023-04-06T04:00:03;12.52;;;7.43;;
47669;SDS011;33408;52.062;11.722;2023-04-06T04:02:30;11.27;;;6.18;;
47669;SDS011;33408;52.062;11.722;2023-04-06T04:04:57;12.80;;;6.53;;
47669;SDS011;33408;52.062;11.722;2023-04-06T04:07:24;11.65;;;6.55;;
47669;SDS011;33408;52.062;11.722;2023-04-06T04:09:50;17.10;;;6.70;;
47669;SDS011;33408;52.062;11.722;2023-04-06T04:12:17;11.20;;;6.32;;
47669;SDS011;33408;52.062;11.722;2023-04-06T04:14:45;19.25;;;8.13;;
47669;SDS011;33408;52.062;11.722;2023-04-06T04:17:11;24.98;;;10.55;;
47669;SDS011;33408;52.062;11.722;2023-04-06T04:19:38;24.50;;;11.57;;
47669;SDS011;33408;52.062;11.722;2023-04-06T04:22:06;29.20;;;11.05;;
47669;SDS011;33408;52.062;11.722;2023-04-06T04:24:33;25.17;;;10.70;;
47669;SDS011;33408;52.062;11.722;2023-04-06T04:26:59;21.70;;;9.23;;
47669;SDS011;33408;52.062;11.722;2023-04-06T04:29:26;18.85;;;8.98;;
47669;SDS011;33408;52.062;11.722;2023-04-06T04:31:54;22.42;;;9.65;;
47669;SDS011;33408;52.062;11.722;2023-04-06T04:34:21;26.85;;;10.27;;
47669;SDS011;33408;52.062;11.722;2023-04-06T04:36:49;23.73;;;9.73;;
47669;SDS011;33408;52.062;11.722;2023-04-06T04:39:15;22.73;;;10.38;;
47669;SDS011;33408;52.062;11.722;2023-04-06T04:41:42;25.02;;;10.60;;
47669;SDS011;33408;52.062;11.722;2023-04-06T04:44:08;28.52;;;11.45;;
47669;SDS011;33408;52.062;11.722;2023-04-06T04:46:35;21.05;;;9.52;;
47669;SDS011;33408;52.062;11.722;2023-04-06T04:49:03;20.77;;;11.73;;
47669;SDS011;33408;52.062;11.722;2023-04-06T04:51:29;19.58;;;10.40;;
47669;SDS011;33408;52.062;11.722;2023-04-06T04:53:57;22.98;;;10.65;;
47669;SDS011;33408;52.062;11.722;2023-04-06T04:56:24;15.95;;;8.60;;
47669;SDS011;33408;52.062;11.722;2023-04-06T04:58:52;22.42;;;9.52;;
47669;SDS011;33408;52.062;11.722;2023-04-06T05:01:19;29.23;;;11.60;;
47669;SDS011;33408;52.062;11.722;2023-04-06T05:03:45;30.02;;;12.02;;
47669;SDS011;33408;52.062;11.722;2023-04-06T05:06:14;31.38;;;12.23;;
47669;SDS011;33408;52.062;11.722;2023-04-06T05:08:40;27.15;;;11.27;;
47669;SDS011;33408;52.062;11.722;2023-04-06T05:11:07;22.95;;;10.10;;
47669;SDS011;33408;52.062;11.722;2023-04-06T05:13:34;22.83;;;9.90;;
47669;SDS011;33408;52.062;11.722;2023-04-06T05:16:01;21.48;;;9.07;;
47669;SDS011;33408;52.062;11.722;2023-04-06T05:18:28;23.73;;;8.75;;
47669;SDS011;33408;52.062;11.722;2023-04-06T05:20:55;16.30;;;8.63;;
47669;SDS011;33408;52.062;11.722;2023-04-06T05:23:23;20.00;;;9.00;;
47669;SDS011;33408;52.062;11.722;2023-04-06T05:25:49;16.38;;;8.80;;
47669;SDS011;33408;52.062;11.722;2023-04-06T05:28:17;22.02;;;8.70;;
47669;SDS011;33408;52.062;11.722;2023-04-06T05:30:44;14.02;;;8.07;;
47669;SDS011;33408;52.062;11.722;2023-04-06T05:33:11;13.98;;;7.28;;
47669;SDS011;33408;52.062;11.722;2023-04-06T05:35:38;16.75;;;7.22;;
47669;SDS011;33408;52.062;11.722;2023-04-06T05:38:07;19.73;;;8.38;;
47669;SDS011;33408;52.062;11.722;2023-04-06T05:40:35;12.20;;;7.75;;
47669;SDS011;33408;52.062;11.722;2023-04-06T05:43:02;13.25;;;7.40;;
47669;SDS011;33408;52.062;11.722;2023-04-06T05:45:29;16.00;;;7.55;;
47669;SDS011;33408;52.062;11.722;2023-04-06T05:47:56;12.55;;;7.25;;
47669;SDS011;33408;52.062;11.722;2023-04-06T05:50:22;12.68;;;6.90;;
47669;SDS011;33408;52.062;11.722;2023-04-06T05:52:49;12.10;;;6.57;;
47669;SDS011;33408;52.062;11.722;2023-04-06T05:55:16;11.52;;;7.15;;
47669;SDS011;33408;52.062;11.722;2023-04-06T05:57:44;15.38;;;7.50;;
47669;SDS011;33408;52.062;11.722;2023-04-06T06:00:11;11.23;;;6.65;;
47669;SDS011;33408;52.062;11.722;2023-04-06T06:02:38;13.07;;;7.03;;
47669;SDS011;33408;52.062;11.722;2023-04-06T06:05:07;13.13;;;6.65;;
47669;SDS011;33408;52.062;11.722;2023-04-06T06:07:34;12.45;;;8.13;;
47669;SDS011;33408;52.062;11.722;2023-04-06T06:10:01;13.48;;;7.90;;
47669;SDS011;33408;52.062;11.722;2023-04-06T06:12:27;13.65;;;7.82;;
47669;SDS011;33408;52.062;11.722;2023-04-06T06:14:55;10.95;;;6.20;;
47669;SDS011;33408;52.062;11.722;2023-04-06T06:17:22;14.43;;;7.13;;
47669;SDS011;33408;52.062;11.722;2023-04-06T06:19:49;16.50;;;7.85;;
47669;SDS011;33408;52.062;11.722;2023-04-06T06:22:15;11.77;;;6.93;;
47669;SDS011;33408;52.062;11.722;2023-04-06T06:24:44;12.32;;;6.57;;
47669;SDS011;33408;52.062;11.722;2023-04-06T06:27:10;10.43;;;6.75;;
47669;SDS011;33408;52.062;11.722;2023-04-06T06:29:37;11.38;;;5.93;;
47669;SDS011;33408;52.062;11.722;2023-04-06T06:32:05;13.48;;;8.15;;
47669;SDS011;33408;52.062;11.722;2023-04-06T06:34:34;15.82;;;7.05;;
47669;SDS011;33408;52.062;11.722;2023-04-06T06:37:00;9.82;;;5.78;;
47669;SDS011;33408;52.062;11.722;2023-04-06T06:39:27;13.82;;;7.07;;
47669;SDS011;33408;52.062;11.722;2023-04-06T06:41:54;11.60;;;6.38;;
47669;SDS011;33408;52.062;11.722;2023-04-06T06:44:21;12.55;;;6.32;;
47669;SDS011;33408;52.062;11.722;2023-04-06T06:46:48;12.20;;;6.50;;
47669;SDS011;33408;52.062;11.722;2023-04-06T06:49:16;14.80;;;6.32;;
47669;SDS011;33408;52.062;11.722;2023-04-06T06:51:43;11.55;;;5.93;;
47669;SDS011;33408;52.062;11.722;2023-04-06T06:54:11;12.55;;;6.78;;
47669;SDS011;33408;52.062;11.722;2023-04-06T06:56:37;11.00;;;6.55;;
47669;SDS011;33408;52.062;11.722;2023-04-06T06:59:04;11.48;;;6.72;;
47669;SDS011;33408;52.062;11.722;2023-04-06T07:01:32;13.70;;;7.20;;
47669;SDS011;33408;52.062;11.722;2023-04-06T07:03:59;12.70;;;7.55;;
47669;SDS011;33408;52.062;11.722;2023-04-06T07:06:27;13.50;;;6.80;;
47669;SDS011;33408;52.062;11.722;2023-04-06T07:08:54;13.20;;;6.43;;
47669;SDS011;33408;52.062;11.722;2023-04-06T07:11:20;11.95;;;6.50;;
47669;SDS011;33408;52.062;11.722;2023-04-06T07:13:47;12.23;;;7.03;;
47669;SDS011;33408;52.062;11.722;2023-04-06T07:16:13;14.65;;;7.68;;
47669;SDS011;33408;52.062;11.722;2023-04-06T07:18:40;11.50;;;7.20;;
47669;SDS011;33408;52.062;11.722;2023-04-06T07:21:07;15.05;;;7.20;;
47669;SDS011;33408;52.062;11.722;2023-04-06T07:23:35;10.95;;;7.22;;
47669;SDS011;33408;52.062;11.722;2023-04-06T07:26:01;13.48;;;7.13;;
47669;SDS011;33408;52.062;11.722;2023-04-06T07:28:28;12.93;;;7.25;;
47669;SDS011;33408;52.062;11.722;2023-04-06T07:30:55;10.27;;;7.20;;
47669;SDS011;33408;52.062;11.722;2023-04-06T07:33:21;11.65;;;7.18;;
47669;SDS011;33408;52.062;11.722;2023-04-06T07:35:48;16.17;;;7.80;;
47669;SDS011;33408;52.062;11.722;2023-04-06T07:38:15;12.27;;;7.35;;
47669;SDS011;33408;52.062;11.722;2023-04-06T07:40:43;11.63;;;7.50;;
47669;SDS011;33408;52.062;11.722;2023-04-06T07:43:10;10.93;;;6.47;;
47669;SDS011;33408;52.062;11.722;2023-04-06T07:45:36;10.30;;;7.07;;
47669;SDS011;33408;52.062;11.722;2023-04-06T07:48:03;14.35;;;8.63;;
47669;SDS011;33408;52.062;11.722;2023-04-06T07:50:30;11.38;;;7.90;;
47669;SDS011;33408;52.062;11.722;2023-04-06T07:52:57;13.43;;;7.90;;
47669;SDS011;33408;52.062;11.722;2023-04-06T07:55:23;14.57;;;8.68;;
47669;SDS011;33408;52.062;11.722;2023-04-06T07:57:51;11.23;;;7.70;;
47669;SDS011;33408;52.062;11.722;2023-04-06T08:00:18;12.00;;;7.38;;
47669;SDS011;33408;52.062;11.722;2023-04-06T08:02:45;11.25;;;7.68;;
47669;SDS011;33408;52.062;11.722;2023-04-06T08:05:12;12.77;;;7.93;;
47669;SDS011;33408;52.062;11.722;2023-04-06T08:07:39;12.90;;;7.97;;
47669;SDS011;33408;52.062;11.722;2023-04-06T08:10:06;14.88;;;8.48;;
47669;SDS011;33408;52.062;11.722;2023-04-06T08:12:34;14.25;;;9.80;;
47669;SDS011;33408;52.062;11.722;2023-04-06T08:15:02;11.25;;;8.35;;
47669;SDS011;33408;52.062;11.722;2023-04-06T08:17:29;13.23;;;9.13;;
47669;SDS011;33408;52.062;11.722;2023-04-06T08:19:58;14.45;;;8.55;;
47669;SDS011;33408;52.062;11.722;2023-04-06T08:22:25;13.43;;;9.38;;
47669;SDS011;33408;52.062;11.722;2023-04-06T08:24:52;19.73;;;8.27;;
47669;SDS011;33408;52.062;11.722;2023-04-06T08:27:19;11.50;;;7.55;;
47669;SDS011;33408;52.062;11.722;2023-04-06T08:29:46;16.35;;;8.55;;
47669;SDS011;33408;52.062;11.722;2023-04-06T08:32:15;11.63;;;7.80;;
47669;SDS011;33408;52.062;11.722;2023-04-06T08:34:41;12.45;;;8.60;;
47669;SDS011;33408;52.062;11.722;2023-04-06T08:37:08;26.00;;;9.60;;
47669;SDS011;33408;52.062;11.722;2023-04-06T08:39:34;13.23;;;8.75;;
47669;SDS011;33408;52.062;11.722;2023-04-06T08:42:01;29.90;;;10.35;;
47669;SDS011;33408;52.062;11.722;2023-04-06T08:44:28;16.60;;;8.95;;
47669;SDS011;33408;52.062;11.722;2023-04-06T08:46:56;24.42;;;9.77;;
47669;SDS011;33408;52.062;11.722;2023-04-06T08:49:26;15.43;;;9.10;;
47669;SDS011;33408;52.062;11.722;2023-04-06T08:51:54;16.00;;;9.73;;
47669;SDS011;33408;52.062;11.722;2023-04-06T08:54:22;23.65;;;8.73;;
47669;SDS011;33408;52.062;11.722;2023-04-06T08:56:49;17.75;;;10.10;;
47669;SDS011;33408;52.062;11.722;2023-04-06T08:59:16;17.85;;;9.40;;
47669;SDS011;33408;52.062;11.722;2023-04-06T09:01:43;14.27;;;9.25;;
47669;SDS011;33408;52.062;11.722;2023-04-06T09:04:11;15.13;;;9.35;;
47669;SDS011;33408;52.062;11.722;2023-04-06T09:06:40;15.73;;;10.27;;
47669;SDS011;33408;52.062;11.722;2023-04-06T09:09:06;14.65;;;9.18;;
47669;SDS011;33408;52.062;11.722;2023-04-06T09:11:46;14.82;;;9.23;;
47669;SDS011;33408;52.062;11.722;2023-04-06T09:14:14;12.07;;;8.38;;
47669;SDS011;33408;52.062;11.722;2023-04-06T09:16:42;14.23;;;8.25;;
47669;SDS011;33408;52.062;11.722;2023-04-06T09:19:10;14.32;;;8.15;;
47669;SDS011;33408;52.062;11.722;2023-04-06T09:21:37;14.55;;;8.82;;
47669;SDS011;33408;52.062;11.722;2023-04-06T09:24:06;13.30;;;8.45;;
47669;SDS011;33408;52.062;11.722;2023-04-06T09:26:43;11.43;;;8.02;;
47669;SDS011;33408;52.062;11.722;2023-04-06T09:29:21;11.05;;;7.38;;
47669;SDS011;33408;52.062;11.722;2023-04-06T09:31:49;13.00;;;9.15;;
47669;SDS011;33408;52.062;11.722;2023-04-06T09:34:20;14.48;;;8.95;;
47669;SDS011;33408;52.062;11.722;2023-04-06T09:39:19;11.75;;;8.13;;
47669;SDS011;33408;52.062;11.722;2023-04-06T09:41:51;16.55;;;8.18;;
47669;SDS011;33408;52.062;11.722;2023-04-06T09:44:19;11.90;;;8.75;;
47669;SDS011;33408;52.062;11.722;2023-04-06T09:46:46;12.57;;;8.55;;
47669;SDS011;33408;52.062;11.722;2023-04-06T09:49:13;11.45;;;7.90;;
47669;SDS011;33408;52.062;11.722;2023-04-06T09:51:41;12.55;;;8.68;;
47669;SDS011;33408;52.062;11.722;2023-04-06T09:54:15;15.73;;;7.40;;
47669;SDS011;33408;52.062;11.722;2023-04-06T09:56:45;13.35;;;7.60;;
47669;SDS011;33408;52.062;11.722;2023-04-06T09:59:13;14.52;;;8.43;;
47669;SDS011;33408;52.062;11.722;2023-04-06T10:01:45;12.18;;;8.25;;
47669;SDS011;33408;52.062;11.722;2023-04-06T10:04:18;12.63;;;8.18;;
47669;SDS011;33408;52.062;11.722;2023-04-06T10:06:55;13.35;;;7.75;;
47669;SDS011;33408;52.062;11.722;2023-04-06T10:09:24;14.73;;;9.00;;
47669;SDS011;33408;52.062;11.722;2023-04-06T10:11:54;16.15;;;8.85;;
47669;SDS011;33408;52.062;11.722;2023-04-06T10:14:21;13.13;;;8.05;;
47669;SDS011;33408;52.062;11.722;2023-04-06T10:16:50;11.68;;;7.32;;
47669;SDS011;33408;52.062;11.722;2023-04-06T10:19:18;13.70;;;8.27;;
47669;SDS011;33408;52.062;11.722;2023-04-06T10:21:51;11.23;;;7.60;;
47669;SDS011;33408;52.062;11.722;2023-04-06T10:24:21;12.73;;;7.50;;
47669;SDS011;33408;52.062;11.722;2023-04-06T10:26:58;12.77;;;7.82;;
47669;SDS011;33408;52.062;11.722;2023-04-06T10:29:26;13.02;;;7.50;;
47669;SDS011;33408;52.062;11.722;2023-04-06T10:31:53;13.35;;;7.07;;
47669;SDS011;33408;52.062;11.722;2023-04-06T10:34:21;12.82;;;6.88;;
47669;SDS011;33408;52.062;11.722;2023-04-06T10:36:48;12.60;;;6.93;;
47669;SDS011;33408;52.062;11.722;2023-04-06T10:39:14;10.52;;;7.07;;
47669;SDS011;33408;52.062;11.722;2023-04-06T10:41:51;10.23;;;6.72;;
47669;SDS011;33408;52.062;11.722;2023-04-06T10:44:19;11.00;;;6.70;;
47669;SDS011;33408;52.062;11.722;2023-04-06T10:46:52;11.55;;;7.18;;
47669;SDS011;33408;52.062;11.722;2023-04-06T10:49:19;14.68;;;7.68;;
47669;SDS011;33408;52.062;11.722;2023-04-06T10:51:50;11.27;;;7.72;;
47669;SDS011;33408;52.062;11.722;2023-04-06T10:54:18;11.65;;;8.05;;
47669;SDS011;33408;52.062;11.722;2023-04-06T10:56:46;11.05;;;6.95;;
47669;SDS011;33408;52.062;11.722;2023-04-06T10:59:14;16.48;;;8.05;;
47669;SDS011;33408;52.062;11.722;2023-04-06T11:01:46;10.95;;;7.38;;
47669;SDS011;33408;52.062;11.722;2023-04-06T11:04:15;10.93;;;7.10;;
47669;SDS011;33408;52.062;11.722;2023-04-06T11:06:45;16.50;;;8.55;;
47669;SDS011;33408;52.062;11.722;2023-04-06T11:09:22;12.65;;;8.32;;
47669;SDS011;33408;52.062;11.722;2023-04-06T11:11:51;12.38;;;8.65;;
47669;SDS011;33408;52.062;11.722;2023-04-06T11:14:17;14.70;;;8.88;;
47669;SDS011;33408;52.062;11.722;2023-04-06T11:16:47;16.23;;;9.65;;
47669;SDS011;33408;52.062;11.722;2023-04-06T11:19:15;13.55;;;9.57;;
47669;SDS011;33408;52.062;11.722;2023-04-06T11:21:42;13.95;;;8.95;;
47669;SDS011;33408;52.062;11.722;2023-04-06T11:24:12;15.73;;;9.65;;
47669;SDS011;33408;52.062;11.722;2023-04-06T11:26:40;17.83;;;9.30;;
47669;SDS011;33408;52.062;11.722;2023-04-06T11:29:08;11.93;;;8.27;;
47669;SDS011;33408;52.062;11.722;2023-04-06T11:31:42;21.67;;;9.43;;
47669;SDS011;33408;52.062;11.722;2023-04-06T11:34:15;14.75;;;9.13;;
47669;SDS011;33408;52.062;11.722;2023-04-06T11:36:43;14.40;;;9.00;;
47669;SDS011;33408;52.062;11.722;2023-04-06T11:39:11;18.48;;;10.13;;
47669;SDS011;33408;52.062;11.722;2023-04-06T11:41:38;14.68;;;9.38;;
47669;SDS011;33408;52.062;11.722;2023-04-06T11:44:05;14.27;;;8.70;;
47669;SDS011;33408;52.062;11.722;2023-04-06T11:46:32;16.27;;;9.38;;
47669;SDS011;33408;52.062;11.722;2023-04-06T11:49:02;18.10;;;9.13;;
47669;SDS011;33408;52.062;11.722;2023-04-06T11:51:30;18.30;;;9.60;;
47669;SDS011;33408;52.062;11.722;2023-04-06T11:54:01;12.40;;;8.95;;
47669;SDS011;33408;52.062;11.722;2023-04-06T11:56:28;13.82;;;8.57;;
47669;SDS011;33408;52.062;11.722;2023-04-06T11:58:56;14.65;;;9.32;;
47669;SDS011;33408;52.062;11.722;2023-04-06T12:01:24;17.45;;;10.38;;
47669;SDS011;33408;52.062;11.722;2023-04-06T12:03:52;16.50;;;9.60;;
47669;SDS011;33408;52.062;11.722;2023-04-06T12:06:19;15.75;;;9.20;;
47669;SDS011;33408;52.062;11.722;2023-04-06T12:08:47;15.73;;;9.18;;
47669;SDS011;33408;52.062;11.722;2023-04-06T12:11:14;13.15;;;9.38;;
47669;SDS011;33408;52.062;11.722;2023-04-06T12:13:41;16.00;;;9.40;;
47669;SDS011;33408;52.062;11.722;2023-04-06T12:16:08;14.65;;;9.07;;
47669;SDS011;33408;52.062;11.722;2023-04-06T12:18:34;14.52;;;9.80;;
47669;SDS011;33408;52.062;11.722;2023-04-06T12:21:01;15.13;;;9.80;;
47669;SDS011;33408;52.062;11.722;2023-04-06T12:23:27;16.75;;;9.80;;
47669;SDS011;33408;52.062;11.722;2023-04-06T12:25:55;15.77;;;8.27;;
47669;SDS011;33408;52.062;11.722;2023-04-06T12:28:22;20.38;;;10.10;;
47669;SDS011;33408;52.062;11.722;2023-04-06T12:30:52;26.58;;;9.65;;
47669;SDS011;33408;52.062;11.722;2023-04-06T12:33:19;27.58;;;9.70;;
47669;SDS011;33408;52.062;11.722;2023-04-06T12:35:45;13.77;;;8.52;;
47669;SDS011;33408;52.062;11.722;2023-04-06T12:38:12;13.60;;;9.07;;
47669;SDS011;33408;52.062;11.722;2023-04-06T12:40:39;12.75;;;8.82;;
47669;SDS011;33408;52.062;11.722;2023-04-06T12:43:07;12.65;;;8.40;;
47669;SDS011;33408;52.062;11.722;2023-04-06T12:45:34;12.15;;;8.63;;
47669;SDS011;33408;52.062;11.722;2023-04-06T12:48:00;12.65;;;8.80;;
47669;SDS011;33408;52.062;11.722;2023-04-06T12:50:27;11.18;;;8.70;;
47669;SDS011;33408;52.062;11.722;2023-04-06T12:52:54;11.45;;;8.38;;
47669;SDS011;33408;52.062;11.722;2023-04-06T12:55:20;11.40;;;8.40;;
47669;SDS011;33408;52.062;11.722;2023-04-06T12:57:47;12.73;;;8.00;;
47669;SDS011;33408;52.062;11.722;2023-04-06T13:00:16;11.70;;;8.57;;
47669;SDS011;33408;52.062;11.722;2023-04-06T13:02:44;14.52;;;9.30;;
47669;SDS011;33408;52.062;11.722;2023-04-06T13:05:12;13.95;;;8.77;;
47669;SDS011;33408;52.062;11.722;2023-04-06T13:07:39;13.02;;;9.07;;
47669;SDS011;33408;52.062;11.722;2023-04-06T13:10:07;11.80;;;8.75;;
47669;SDS011;33408;52.062;11.722;2023-04-06T13:12:34;25.80;;;11.00;;
47669;SDS011;33408;52.062;11.722;2023-04-06T13:15:01;13.13;;;8.88;;
47669;SDS011;33408;52.062;11.722;2023-04-06T13:17:29;11.00;;;8.38;;
47669;SDS011;33408;52.062;11.722;2023-04-06T13:19:56;55.40;;;14.13;;
47669;SDS011;33408;52.062;11.722;2023-04-06T13:22:23;20.73;;;9.88;;
47669;SDS011;33408;52.062;11.722;2023-04-06T13:24:50;18.40;;;8.55;;
47669;SDS011;33408;52.062;11.722;2023-04-06T13:27:16;17.00;;;8.27;;
47669;SDS011;33408;52.062;11.722;2023-04-06T13:29:43;16.13;;;9.18;;
47669;SDS011;33408;52.062;11.722;2023-04-06T13:32:09;15.38;;;9.27;;
47669;SDS011;33408;52.062;11.722;2023-04-06T13:34:37;92.03;;;20.15;;
47669;SDS011;33408;52.062;11.722;2023-04-06T13:37:05;626.53;;;93.43;;
47669;SDS011;33408;52.062;11.722;2023-04-06T13:39:32;457.55;;;68.82;;
47669;SDS011;33408;52.062;11.722;2023-04-06T13:41:58;139.05;;;20.85;;
47669;SDS011;33408;52.062;11.722;2023-04-06T13:44:27;93.60;;;17.58;;
47669;SDS011;33408;52.062;11.722;2023-04-06T13:46:56;43.33;;;11.02;;
47669;SDS011;33408;52.062;11.722;2023-04-06T13:49:23;129.50;;;20.17;;
47669;SDS011;33408;52.062;11.722;2023-04-06T13:51:51;20.92;;;9.85;;
47669;SDS011;33408;52.062;11.722;2023-04-06T13:54:19;26.48;;;9.93;;
47669;SDS011;33408;52.062;11.722;2023-04-06T13:56:46;60.95;;;12.32;;
47669;SDS011;33408;52.062;11.722;2023-04-06T13:59:12;818.92;;;123.47;;
47669;SDS011;33408;52.062;11.722;2023-04-06T14:01:39;829.05;;;122.15;;
47669;SDS011;33408;52.062;11.722;2023-04-06T14:04:06;112.68;;;17.20;;
47669;SDS011;33408;52.062;11.722;2023-04-06T14:06:32;220.15;;;30.83;;
47669;SDS011;33408;52.062;11.722;2023-04-06T14:09:00;165.82;;;25.80;;
47669;SDS011;33408;52.062;11.722;2023-04-06T14:11:27;13.80;;;8.18;;
47669;SDS011;33408;52.062;11.722;2023-04-06T14:13:54;18.33;;;9.07;;
47669;SDS011;33408;52.062;11.722;2023-04-06T14:16:22;63.70;;;13.63;;
47669;SDS011;33408;52.062;11.722;2023-04-06T14:18:49;311.65;;;39.10;;
47669;SDS011;33408;52.062;11.722;2023-04-06T14:21:17;282.70;;;30.60;;
47669;SDS011;33408;52.062;11.722;2023-04-06T14:23:44;332.27;;;36.70;;
47669;SDS011;33408;52.062;11.722;2023-04-06T14:26:13;118.05;;;18.55;;
47669;SDS011;33408;52.062;11.722;2023-04-06T14:28:40;41.58;;;11.93;;